Hovedside
METAR-TAF:

METAR-TAF

Lufthavner :

Tin City, Alaska, USA

breddegrad: 65-34N, lengdegrad: 167-55W, høyde over havet: 83 m

Gjeldene værobservasjon

Denne rapporten ble laget for 1 time og 6 minutter siden, klokken 16:55 UTC
Vind 15 kt fra Sør-sørøst
Temperatur -4°C
Luftfuktighet 100%
Trykk 997 hPa
Sikt: 8.0 km
Brutte skyer i en høyde av 800 ft
lette snøbyger

METAR: PATC 231655Z AUTO 15015KT 5SM -SHSN BKN008 M04/M04 A2943 RMK AO2 SHSNB1559E1622B1650 SLP973 P0000 T10371040

Tid: 09:01 (18:01 UTC)


TAF: fraværende

Værobservasjoner og værvarsel for over 4000 flyplasser (METAR- og TAF-rapporter).

Tilgjengelige stasjoner er representert av de røde og gule prikkene på kartet.

Hold musepekeren over prikken for å se navnet på stasjonen.

Klikk så for å se værobservasjoner og -varsler.

For å forandre kartet kan du klikke på den grønne knappen med svart kryss for å zoome inn, på den grønne knappen med strek for å zoome ut, eller på de grønne pilene for å se tilstøtende kart.


METAR-TAF: